Time;durP1;ratioP1;P1;durP2;ratioP2;P2;SDS_P1;SDS_P2;PMS_P1;PMS_P2;Temp;Humidity;BMP_temperature;BMP_pressure;BME280_temperature;BME280_humidity;BME280_pressure;Samples;Min_cycle;Max_cycle;Signal;HPM_P1;HPM_P2
2023/01/02 00:02:06;;;;;;;1.47;0.90;;;9.40;99.90;;;;;;5026807;28;20083;-69
2023/01/02 00:04:32;;;;;;;4.13;1.10;;;9.40;99.90;;;;;;5043472;28;20049;-70
2023/01/02 00:06:57;;;;;;;6.47;1.40;;;9.40;99.90;;;;;;5041217;28;20034;-70
2023/01/02 00:09:24;;;;;;;3.20;1.43;;;9.40;99.90;;;;;;5043388;28;20043;-70
2023/01/02 00:11:49;;;;;;;1.55;0.90;;;9.40;99.90;;;;;;5026097;28;20402;-70
2023/01/02 00:14:15;;;;;;;2.77;0.80;;;9.40;99.90;;;;;;5044879;28;20067;-70
2023/01/02 00:16:41;;;;;;;2.50;1.00;;;9.40;99.90;;;;;;5021104;28;20294;-71
2023/01/02 00:19:07;;;;;;;1.93;0.90;;;9.40;99.90;;;;;;5027312;28;20045;-70
2023/01/02 00:21:33;;;;;;;2.53;1.25;;;9.40;99.90;;;;;;5044759;28;20049;-70
2023/01/02 00:23:59;;;;;;;3.35;1.30;;;9.40;99.90;;;;;;5026163;28;20413;-70
2023/01/02 00:26:24;;;;;;;3.40;1.53;;;9.40;99.90;;;;;;5034658;28;20051;-69
2023/01/02 00:28:50;;;;;;;2.30;1.10;;;9.50;99.90;;;;;;5036333;28;20076;-72
2023/01/02 00:31:16;;;;;;;2.60;1.40;;;9.50;99.90;;;;;;5030548;28;20041;-70
2023/01/02 00:33:42;;;;;;;3.10;1.47;;;9.50;99.90;;;;;;5046754;28;20378;-69
2023/01/02 00:36:10;;;;;;;4.30;1.25;;;9.50;99.90;;;;;;5048444;28;20506;-70
2023/01/02 00:38:36;;;;;;;3.92;1.65;;;9.50;99.90;;;;;;5015718;28;20071;-69
2023/01/02 00:41:03;;;;;;;2.85;1.60;;;9.50;99.90;;;;;;5046860;28;20082;-70
2023/01/02 00:43:29;;;;;;;3.70;2.28;;;9.60;99.90;;;;;;5030868;28;20060;-69
2023/01/02 00:45:55;;;;;;;4.43;1.77;;;9.60;99.90;;;;;;5031460;28;20049;-70
2023/01/02 00:48:21;;;;;;;4.07;2.00;;;9.60;99.90;;;;;;5046202;28;20072;-70
2023/01/02 00:50:47;;;;;;;5.20;1.92;;;9.70;99.90;;;;;;5033744;28;20044;-70
2023/01/02 00:53:13;;;;;;;4.82;1.70;;;9.60;99.90;;;;;;5028091;28;20063;-71
2023/01/02 00:55:39;;;;;;;4.50;1.77;;;9.70;99.90;;;;;;5029600;28;20056;-70
2023/01/02 00:58:04;;;;;;;4.03;1.80;;;9.70;99.90;;;;;;5027377;28;20057;-70
2023/01/02 01:00:30;;;;;;;3.67;2.20;;;9.70;99.90;;;;;;5027669;28;20049;-70
2023/01/02 01:02:57;;;;;;;3.17;1.90;;;9.70;99.90;;;;;;5049048;28;20533;-69
2023/01/02 01:05:24;;;;;;;3.50;1.80;;;9.80;99.90;;;;;;5027549;28;20323;-69
2023/01/02 01:07:50;;;;;;;4.18;1.88;;;9.90;99.90;;;;;;5029332;28;20086;-70
2023/01/02 01:10:15;;;;;;;4.55;1.67;;;9.90;99.90;;;;;;5029128;28;20474;-69
2023/01/02 01:12:41;;;;;;;2.60;1.63;;;9.90;99.90;;;;;;5047428;28;20518;-69
2023/01/02 01:15:07;;;;;;;4.55;1.67;;;10.00;99.90;;;;;;5051099;28;20037;-69
2023/01/02 01:17:33;;;;;;;3.10;1.83;;;10.00;99.90;;;;;;5054946;28;20049;-69
2023/01/02 01:19:58;;;;;;;4.60;1.87;;;10.10;99.90;;;;;;5034218;28;20142;-68
2023/01/02 01:22:24;;;;;;;4.33;1.80;;;10.10;99.90;;;;;;5048280;28;20274;-69
2023/01/02 01:24:50;;;;;;;2.97;1.88;;;10.20;99.90;;;;;;5022147;28;20040;-68
2023/01/02 01:27:16;;;;;;;3.20;1.87;;;10.20;99.90;;;;;;5047420;28;20354;-69
2023/01/02 01:29:41;;;;;;;4.93;1.67;;;10.20;99.90;;;;;;5026038;28;20036;-68
2023/01/02 01:32:07;;;;;;;4.60;1.70;;;10.30;99.90;;;;;;5028297;28;20052;-70
2023/01/02 01:34:32;;;;;;;3.03;1.80;;;10.20;99.90;;;;;;5046741;28;20502;-68
2023/01/02 01:36:58;;;;;;;3.37;1.90;;;10.30;99.90;;;;;;5052590;28;20127;-69
2023/01/02 01:39:24;;;;;;;2.90;1.83;;;10.30;99.90;;;;;;5031167;28;20106;-69
2023/01/02 01:41:49;;;;;;;2.80;1.60;;;10.30;99.90;;;;;;5026880;28;20501;-69
2023/01/02 01:44:49;;;;;;;2.93;1.90;;;10.30;99.90;;;;;;5030138;28;20726;-69
2023/01/02 01:47:32;;;;;;;3.97;1.67;;;10.30;99.90;;;;;;5042103;28;20034;-69
2023/01/02 01:50:09;;;;;;;5.57;2.05;;;10.30;99.90;;;;;;5041956;28;20520;-68
2023/01/02 01:52:39;;;;;;;3.47;2.08;;;10.30;99.90;;;;;;5029658;28;20462;-69
2023/01/02 01:55:13;;;;;;;5.30;2.50;;;10.40;99.90;;;;;;5049575;28;20502;-69
2023/01/02 01:57:50;;;;;;;4.18;2.30;;;10.40;99.90;;;;;;5029460;28;20112;-69
2023/01/02 02:00:16;;;;;;;4.68;2.10;;;10.40;99.90;;;;;;5046868;28;20064;-68
2023/01/02 02:02:46;;;;;;;4.47;2.22;;;10.40;99.90;;;;;;5028847;28;20498;-69
2023/01/02 02:05:17;;;;;;;6.47;3.10;;;10.40;99.90;;;;;;5026616;28;20053;-69
2023/01/02 02:07:50;;;;;;;5.65;2.88;;;10.40;99.90;;;;;;5050855;28;20053;-69
2023/01/02 02:10:16;;;;;;;4.88;2.92;;;10.50;99.90;;;;;;5028645;28;20037;-68
2023/01/02 02:12:41;;;;;;;6.30;3.07;;;10.50;99.90;;;;;;5042063;28;20033;-69
2023/01/02 02:15:16;;;;;;;5.30;3.37;;;10.50;99.90;;;;;;5046900;28;20269;-68
2023/01/02 02:18:10;;;;;;;8.00;3.60;;;10.50;99.90;;;;;;5032463;28;20103;-69
2023/01/02 02:20:43;;;;;;;7.53;3.90;;;10.50;99.90;;;;;;5046846;28;20911;-69
2023/01/02 02:23:49;;;;;;;7.40;4.15;;;10.50;99.90;;;;;;5044004;28;20106;-69
2023/01/02 02:26:52;;;;;;;7.35;4.20;;;10.60;99.90;;;;;;5028091;28;20052;-68
2023/01/02 02:29:47;;;;;;;7.25;4.07;;;10.60;99.90;;;;;;5024186;28;20487;-68
2023/01/02 02:32:25;;;;;;;11.18;4.45;;;10.60;99.90;;;;;;5041994;28;20194;-69
2023/01/02 02:35:29;;;;;;;9.55;4.50;;;10.60;99.90;;;;;;5045998;28;20036;-69
2023/01/02 02:38:04;;;;;;;7.53;4.40;;;10.60;99.90;;;;;;5009465;28;20467;-68
2023/01/02 02:40:49;;;;;;;7.35;4.30;;;10.60;99.90;;;;;;5021921;28;20079;-69
2023/01/02 02:43:20;;;;;;;8.50;4.13;;;10.70;99.90;;;;;;5027179;28;20111;-70
2023/01/02 02:46:10;;;;;;;8.50;5.18;;;10.70;99.90;;;;;;5027477;28;20041;-69
2023/01/02 02:48:48;;;;;;;8.90;4.93;;;10.70;99.90;;;;;;5017448;28;20072;-69
2023/01/02 02:51:41;;;;;;;11.25;5.13;;;10.70;99.90;;;;;;5045349;28;20112;-69
2023/01/02 02:54:38;;;;;;;8.00;4.43;;;10.70;99.90;;;;;;5023116;28;20387;-68
2023/01/02 02:57:07;;;;;;;8.13;4.57;;;10.80;99.90;;;;;;4990314;28;20135;-68
2023/01/02 02:59:35;;;;;;;9.60;4.75;;;10.70;99.90;;;;;;5033919;28;20119;-68
2023/01/02 03:02:02;;;;;;;6.97;4.45;;;10.80;99.90;;;;;;5027455;28;20048;-69
2023/01/02 03:04:28;;;;;;;10.52;4.38;;;10.80;99.90;;;;;;5017287;28;20135;-69
2023/01/02 03:07:21;;;;;;;9.67;4.50;;;10.80;99.90;;;;;;5026767;28;20164;-69
2023/01/02 03:10:01;;;;;;;11.65;4.15;;;10.80;99.90;;;;;;5027450;28;20571;-69
2023/01/02 03:12:47;;;;;;;10.25;5.05;;;10.90;99.90;;;;;;5044877;28;20383;-69
2023/01/02 03:15:32;;;;;;;7.45;4.47;;;10.90;99.90;;;;;;5013000;28;20048;-69
2023/01/02 03:17:57;;;;;;;7.65;4.57;;;10.90;99.90;;;;;;5010088;28;20052;-69
2023/01/02 03:20:29;;;;;;;7.77;4.63;;;10.80;99.90;;;;;;5045147;28;20040;-69
2023/01/02 03:23:03;;;;;;;8.55;4.32;;;10.80;99.90;;;;;;5044068;28;20064;-68
2023/01/02 03:25:30;;;;;;;9.95;4.80;;;10.80;99.90;;;;;;5037640;28;20138;-69
2023/01/02 03:27:59;;;;;;;9.80;4.85;;;10.90;99.90;;;;;;5026553;28;20048;-69
2023/01/02 03:30:24;;;;;;;8.98;4.50;;;10.90;99.90;;;;;;5044304;28;20049;-69
2023/01/02 03:32:55;;;;;;;9.33;5.10;;;10.90;99.90;;;;;;5026833;28;20043;-69
2023/01/02 03:35:25;;;;;;;8.57;4.78;;;10.90;99.90;;;;;;5026288;28;20082;-69
2023/01/02 03:37:54;;;;;;;8.02;4.75;;;10.90;99.90;;;;;;5044323;28;20037;-69
2023/01/02 03:40:34;;;;;;;13.90;5.80;;;10.90;99.90;;;;;;5041403;28;20730;-68
2023/01/02 03:43:11;;;;;;;12.10;5.18;;;11.00;99.90;;;;;;5022290;28;20045;-68
2023/01/02 03:45:43;;;;;;;10.85;5.68;;;11.00;99.90;;;;;;5044520;28;20060;-69
2023/01/02 03:48:33;;;;;;;9.98;5.13;;;11.00;99.90;;;;;;5026820;28;20041;-69
2023/01/02 03:51:00;;;;;;;9.95;5.45;;;11.00;99.90;;;;;;5026888;28;20045;-68
2023/01/02 03:53:27;;;;;;;10.93;5.25;;;11.00;99.90;;;;;;5044138;28;20045;-69
2023/01/02 03:56:11;;;;;;;12.32;5.88;;;11.00;99.90;;;;;;5026398;28;20090;-68
2023/01/02 03:58:47;;;;;;;9.75;5.32;;;11.00;99.90;;;;;;5019885;28;20049;-69
2023/01/02 04:01:35;;;;;;;9.23;5.23;;;11.00;99.90;;;;;;5025833;28;20072;-70
2023/01/02 04:04:24;;;;;;;11.65;5.35;;;11.00;99.90;;;;;;5021691;28;20426;-69
2023/01/02 04:06:56;;;;;;;10.52;5.43;;;11.00;99.90;;;;;;5026764;28;20095;-69
2023/01/02 04:09:26;;;;;;;10.07;5.20;;;11.00;99.90;;;;;;5032373;28;20052;-68
2023/01/02 04:11:58;;;;;;;9.70;5.30;;;11.00;99.90;;;;;;5043465;28;20040;-69
2023/01/02 04:14:29;;;;;;;11.85;5.18;;;11.00;99.90;;;;;;5040619;28;20055;-68
2023/01/02 04:16:58;;;;;;;10.02;5.10;;;11.00;99.90;;;;;;5023774;28;20044;-68
2023/01/02 04:19:33;;;;;;;10.02;4.68;;;11.10;99.90;;;;;;5043948;28;20048;-69
2023/01/02 04:22:04;;;;;;;8.52;4.22;;;11.00;99.90;;;;;;5029827;28;20498;-69
2023/01/02 04:24:33;;;;;;;7.75;4.78;;;11.00;99.90;;;;;;5007576;28;20080;-68
2023/01/02 04:27:11;;;;;;;10.23;4.78;;;11.00;99.90;;;;;;5043911;28;20707;-69
2023/01/02 04:29:37;;;;;;;10.32;4.47;;;11.00;99.90;;;;;;5044821;28;20084;-69
2023/01/02 04:32:11;;;;;;;12.98;5.25;;;11.00;99.90;;;;;;5044716;28;20088;-69
2023/01/02 04:34:39;;;;;;;11.00;5.32;;;11.00;99.90;;;;;;5024921;28;20140;-69
2023/01/02 04:37:05;;;;;;;14.05;5.93;;;11.00;99.90;;;;;;5042673;28;20070;-69
2023/01/02 04:39:33;;;;;;;13.27;6.07;;;11.00;99.90;;;;;;5026156;28;20044;-69
2023/01/02 04:41:58;;;;;;;10.23;5.22;;;11.00;99.90;;;;;;5010408;28;20491;-68
2023/01/02 04:44:24;;;;;;;9.43;5.63;;;11.00;99.90;;;;;;5043736;28;20091;-68
2023/01/02 04:46:49;;;;;;;9.43;5.43;;;11.00;99.90;;;;;;5044324;28;20033;-69
2023/01/02 04:49:15;;;;;;;11.33;5.03;;;11.00;99.90;;;;;;5044124;28;20145;-69
2023/01/02 04:51:41;;;;;;;12.17;5.30;;;11.00;99.90;;;;;;5043213;28;20495;-68
2023/01/02 04:54:10;;;;;;;8.20;4.73;;;11.00;99.90;;;;;;5044384;28;20102;-68
2023/01/02 04:56:35;;;;;;;12.02;6.07;;;11.00;99.90;;;;;;5029091;28;20033;-69
2023/01/02 04:59:01;;;;;;;9.27;4.50;;;11.00;99.90;;;;;;5041810;28;20486;-69
2023/01/02 05:01:27;;;;;;;8.13;4.63;;;11.00;99.90;;;;;;5042939;28;20304;-69
2023/01/02 05:03:52;;;;;;;7.37;4.53;;;11.10;99.90;;;;;;5007676;28;20032;-68
2023/01/02 05:06:18;;;;;;;11.03;5.27;;;11.00;99.90;;;;;;5043322;28;20391;-70
2023/01/02 05:08:44;;;;;;;7.57;4.33;;;11.00;99.90;;;;;;5043862;28;20036;-68
2023/01/02 05:11:15;;;;;;;8.23;4.47;;;11.00;99.90;;;;;;5044541;28;20303;-69
2023/01/02 05:13:41;;;;;;;6.53;4.03;;;11.20;99.90;;;;;;5026090;28;20533;-68
2023/01/02 05:16:07;;;;;;;8.55;3.63;;;11.10;99.90;;;;;;5047416;28;20037;-68
2023/01/02 05:18:33;;;;;;;;;;;11.10;99.90;;;;;;5034481;28;20103;-69
2023/01/02 05:21:04;;;;;;;7.15;4.13;;;11.10;99.90;;;;;;5029927;28;19967;-67
2023/01/02 05:23:47;;;;;;;6.85;3.67;;;11.10;99.90;;;;;;5028162;28;20053;-69
2023/01/02 05:26:14;;;;;;;8.63;3.58;;;11.10;99.90;;;;;;5025232;28;20184;-69
2023/01/02 05:28:40;;;;;;;5.60;3.03;;;11.10;99.90;;;;;;5027778;28;20072;-69
2023/01/02 05:31:06;;;;;;;6.22;3.50;;;11.10;99.90;;;;;;5027922;28;20076;-69
2023/01/02 05:33:32;;;;;;;4.72;3.10;;;11.10;99.90;;;;;;5028641;28;20041;-69
2023/01/02 05:35:57;;;;;;;7.90;3.77;;;11.10;99.90;;;;;;5106447;22;20045;-69
2023/01/02 05:38:23;;;;;;;6.23;3.17;;;11.10;99.90;;;;;;5033694;28;20217;-68
2023/01/02 05:40:49;;;;;;;7.67;3.90;;;11.20;99.90;;;;;;5034879;28;20056;-68
2023/01/02 05:43:14;;;;;;;6.27;3.60;;;11.10;99.90;;;;;;5025333;28;20052;-68
2023/01/02 05:45:40;;;;;;;5.60;3.27;;;11.10;99.90;;;;;;5038291;28;20132;-68
2023/01/02 05:48:05;;;;;;;5.60;3.33;;;11.20;99.90;;;;;;5012770;28;20150;-68
2023/01/02 05:50:31;;;;;;;5.97;3.27;;;11.10;99.90;;;;;;5004650;28;20099;-69
2023/01/02 05:52:57;;;;;;;6.40;3.60;;;11.20;99.90;;;;;;5019378;28;20045;-68
2023/01/02 05:55:22;;;;;;;6.30;4.00;;;11.20;99.90;;;;;;5023640;28;20042;-69
2023/01/02 05:57:48;;;;;;;6.67;3.50;;;11.10;99.90;;;;;;4995306;28;20049;-68
2023/01/02 06:00:14;;;;;;;6.83;3.67;;;11.10;99.90;;;;;;5018332;28;20111;-69
2023/01/02 06:02:40;;;;;;;6.75;4.00;;;11.10;99.90;;;;;;5003953;28;20063;-68
2023/01/02 06:05:06;;;;;;;6.05;3.60;;;11.10;99.90;;;;;;4991616;28;20054;-69
2023/01/02 06:07:32;;;;;;;6.40;4.00;;;11.10;99.90;;;;;;5010754;28;20056;-69
2023/01/02 06:09:57;;;;;;;6.07;3.67;;;11.10;99.90;;;;;;5014274;28;20430;-69
2023/01/02 06:12:23;;;;;;;6.63;3.97;;;11.10;99.90;;;;;;5019838;28;20088;-69
2023/01/02 06:14:48;;;;;;;6.20;4.03;;;11.10;99.90;;;;;;4985921;28;20065;-69
2023/01/02 06:17:14;;;;;;;4.63;2.90;;;11.00;99.90;;;;;;5004895;28;20108;-69
2023/01/02 06:19:40;;;;;;;4.80;3.07;;;11.00;99.90;;;;;;5024069;28;20143;-69
2023/01/02 06:22:05;;;;;;;5.80;3.27;;;11.00;99.90;;;;;;5009953;28;20060;-69
2023/01/02 06:24:31;;;;;;;4.50;3.13;;;11.00;99.90;;;;;;4996252;28;20399;-68
2023/01/02 06:26:56;;;;;;;6.27;3.50;;;10.90;99.90;;;;;;5016618;28;20045;-69
2023/01/02 06:29:22;;;;;;;6.23;3.60;;;11.00;99.90;;;;;;5006707;28;20427;-69
2023/01/02 06:31:48;;;;;;;7.10;4.23;;;10.90;99.90;;;;;;4983147;28;20045;-68
2023/01/02 06:34:13;;;;;;;6.30;4.00;;;10.90;99.90;;;;;;5018945;28;20045;-69
2023/01/02 06:36:39;;;;;;;6.72;4.05;;;10.80;99.90;;;;;;5023119;28;20053;-69
2023/01/02 06:39:05;;;;;;;8.50;4.10;;;10.90;99.90;;;;;;4997287;28;20407;-69
2023/01/02 06:41:30;;;;;;;7.77;4.03;;;10.70;99.90;;;;;;5022229;28;20384;-68
2023/01/02 06:43:56;;;;;;;11.07;5.15;;;10.60;99.90;;;;;;4994392;28;20528;-69
2023/01/02 06:46:22;;;;;;;10.60;4.53;;;10.50;99.90;;;;;;5014696;28;20381;-69
2023/01/02 06:48:49;;;;;;;9.25;4.47;;;10.40;99.90;;;;;;5016981;28;20378;-69
2023/01/02 06:51:20;;;;;;;8.10;3.60;;;10.30;99.90;;;;;;5005795;28;20041;-69
2023/01/02 06:53:46;;;;;;;5.10;2.50;;;10.20;99.90;;;;;;5024134;28;20045;-68
2023/01/02 06:56:14;;;;;;;2.97;1.40;;;10.10;99.90;;;;;;5001471;28;20333;-69
2023/01/02 06:58:39;;;;;;;5.32;1.58;;;9.90;99.90;;;;;;5007577;28;20114;-69
2023/01/02 07:01:08;;;;;;;2.57;1.00;;;9.80;99.90;;;;;;5013384;28;20049;-69
2023/01/02 07:03:34;;;;;;;5.05;0.90;;;9.70;99.90;;;;;;5010988;28;20077;-69
2023/01/02 07:06:15;;;;;;;2.13;0.90;;;9.60;99.90;;;;;;5012291;28;20479;-69
2023/01/02 07:08:42;;;;;;;3.90;0.80;;;9.50;99.90;;;;;;5009555;28;20065;-69
2023/01/02 07:11:13;;;;;;;2.40;0.88;;;9.40;99.90;;;;;;5009166;28;20515;-69
2023/01/02 07:13:40;;;;;;;3.03;0.95;;;9.30;99.90;;;;;;4999414;28;20506;-69
2023/01/02 07:16:08;;;;;;;1.85;0.88;;;9.30;99.90;;;;;;5014955;28;20053;-68
2023/01/02 07:18:34;;;;;;;2.15;0.70;;;9.20;99.90;;;;;;5013436;28;20084;-68
2023/01/02 07:21:00;;;;;;;1.33;0.70;;;9.20;99.90;;;;;;5021836;28;20451;-68
2023/01/02 07:23:26;;;;;;;1.70;0.50;;;9.10;99.90;;;;;;5001366;28;20151;-68
2023/01/02 07:25:53;;;;;;;1.15;0.70;;;9.10;99.90;;;;;;5011028;28;20183;-69
2023/01/02 07:28:22;;;;;;;2.63;0.80;;;9.10;99.90;;;;;;5005302;28;20648;-70
2023/01/02 07:30:48;;;;;;;2.67;0.80;;;9.00;99.90;;;;;;5012210;28;20086;-69
2023/01/02 07:33:14;;;;;;;2.40;0.88;;;9.00;99.90;;;;;;5016188;28;20050;-69
2023/01/02 07:35:39;;;;;;;1.30;0.77;;;9.00;99.90;;;;;;5013939;28;20286;-68
2023/01/02 07:38:05;;;;;;;2.28;0.70;;;8.90;99.90;;;;;;5008493;28;20141;-68
2023/01/02 07:40:32;;;;;;;2.53;0.70;;;8.90;99.90;;;;;;4997601;28;20540;-69
2023/01/02 07:42:58;;;;;;;2.17;0.70;;;8.90;99.90;;;;;;4979658;28;20479;-68
2023/01/02 07:45:23;;;;;;;1.30;0.60;;;8.80;99.90;;;;;;5018905;28;20048;-69
2023/01/02 07:47:49;;;;;;;2.20;0.73;;;8.80;99.90;;;;;;5013154;28;20117;-68
2023/01/02 07:50:15;;;;;;;2.97;1.13;;;8.80;99.90;;;;;;5006536;28;20033;-68
2023/01/02 07:52:42;;;;;;;1.35;0.68;;;8.70;99.90;;;;;;5012819;28;20041;-69
2023/01/02 07:55:08;;;;;;;1.08;0.47;;;8.70;99.90;;;;;;5019060;28;20080;-69
2023/01/02 07:57:34;;;;;;;1.52;0.30;;;8.70;99.90;;;;;;5012382;28;20046;-69
2023/01/02 07:59:59;;;;;;;3.40;0.83;;;8.70;99.90;;;;;;5004745;28;20085;-69
2023/01/02 08:02:25;;;;;;;1.40;0.50;;;8.60;99.90;;;;;;4980879;28;20042;-68
2023/01/02 08:04:51;;;;;;;2.87;0.67;;;8.60;99.90;;;;;;5007667;28;20041;-69
2023/01/02 08:07:16;;;;;;;1.50;0.50;;;8.50;99.90;;;;;;5007567;28;20480;-69
2023/01/02 08:09:42;;;;;;;3.30;0.50;;;8.60;99.90;;;;;;4989607;28;20534;-68
2023/01/02 08:12:07;;;;;;;1.57;0.60;;;8.60;99.90;;;;;;5011611;28;20380;-68
2023/01/02 08:14:33;;;;;;;2.60;0.90;;;8.60;99.90;;;;;;5010834;28;20054;-68
2023/01/02 08:16:59;;;;;;;0.97;0.63;;;8.50;99.90;;;;;;5015657;28;20046;-68
2023/01/02 08:19:25;;;;;;;1.93;0.60;;;8.60;99.90;;;;;;5007795;28;20057;-68
2023/01/02 08:21:50;;;;;;;1.58;0.63;;;8.50;99.90;;;;;;5017523;28;20041;-69
2023/01/02 08:24:16;;;;;;;4.33;0.90;;;8.50;99.90;;;;;;4992038;28;20057;-69
2023/01/02 08:26:42;;;;;;;1.20;0.60;;;8.60;99.90;;;;;;5014443;28;20435;-69
2023/01/02 08:29:08;;;;;;;1.37;0.60;;;8.50;99.90;;;;;;5014594;28;20049;-69
2023/01/02 08:31:34;;;;;;;1.65;0.75;;;8.60;99.90;;;;;;5014789;28;20045;-68
2023/01/02 08:34:00;;;;;;;2.13;0.70;;;8.50;99.90;;;;;;5004699;28;20115;-69
2023/01/02 08:36:25;;;;;;;3.20;0.87;;;8.50;99.90;;;;;;5014370;28;20033;-68
2023/01/02 08:38:51;;;;;;;1.30;0.63;;;8.60;99.90;;;;;;4998647;28;20070;-68
2023/01/02 08:41:38;;;;;;;2.53;0.90;;;8.50;99.90;;;;;;5005593;28;20097;-68
2023/01/02 08:44:05;;;;;;;2.53;0.70;;;8.50;99.90;;;;;;5004706;28;20419;-69
2023/01/02 08:46:32;;;;;;;2.72;0.80;;;8.50;99.90;;;;;;5005156;28;20424;-68
2023/01/02 08:48:58;;;;;;;2.85;0.98;;;8.50;99.90;;;;;;5004867;28;20484;-69
2023/01/02 08:51:24;;;;;;;2.00;0.87;;;8.50;99.90;;;;;;4988952;28;20063;-69
2023/01/02 08:53:50;;;;;;;4.78;1.02;;;8.50;99.90;;;;;;4994784;28;20091;-68
2023/01/02 08:56:19;;;;;;;5.43;1.10;;;8.50;99.90;;;;;;5012547;28;20616;-68
2023/01/02 08:58:59;;;;;;;4.50;1.50;;;8.50;99.90;;;;;;4997017;28;20553;-68
2023/01/02 09:01:27;;;;;;;6.22;1.42;;;8.50;99.90;;;;;;5010076;28;20408;-68
2023/01/02 09:03:53;;;;;;;7.35;1.92;;;8.50;99.90;;;;;;5009800;28;20069;-69
2023/01/02 09:06:20;;;;;;;5.65;1.60;;;8.50;99.90;;;;;;5012453;28;20045;-68
2023/01/02 09:08:45;;;;;;;4.68;1.60;;;8.50;99.90;;;;;;5017027;28;20038;-68
2023/01/02 09:11:17;;;;;;;6.77;1.63;;;8.50;99.90;;;;;;4995828;28;20099;-68
2023/01/02 09:13:43;;;;;;;4.63;1.83;;;8.50;99.90;;;;;;5008572;28;20275;-69
2023/01/02 09:16:10;;;;;;;5.30;1.95;;;8.60;99.90;;;;;;5011036;28;20053;-69
2023/01/02 09:18:37;;;;;;;3.88;1.42;;;8.60;99.90;;;;;;5010204;28;20077;-69
2023/01/02 09:21:03;;;;;;;4.50;1.77;;;8.60;99.90;;;;;;5012572;28;20406;-69
2023/01/02 09:23:30;;;;;;;5.75;2.15;;;8.60;99.90;;;;;;5011584;28;20120;-69
2023/01/02 09:26:00;;;;;;;3.47;1.60;;;8.60;99.90;;;;;;5007698;28;20056;-69
2023/01/02 09:28:27;;;;;;;5.30;1.67;;;8.60;99.90;;;;;;5011960;28;20037;-69
2023/01/02 09:30:53;;;;;;;;;;;8.60;99.90;;;;;;5017939;28;20042;-69
2023/01/02 09:33:19;;;;;;;4.95;2.10;;;8.60;99.90;;;;;;5004340;28;19928;-70
2023/01/02 09:35:45;;;;;;;4.25;1.55;;;8.60;99.90;;;;;;5006848;28;20659;-69
2023/01/02 09:38:10;;;;;;;3.73;1.73;;;8.60;99.90;;;;;;5010064;28;20062;-69
2023/01/02 09:40:41;;;;;;;4.80;1.77;;;8.70;99.90;;;;;;4997174;28;20038;-69
2023/01/02 09:43:09;;;;;;;4.18;1.20;;;8.60;99.90;;;;;;5004158;28;20041;-69
2023/01/02 09:45:40;;;;;;;3.67;1.35;;;8.70;99.90;;;;;;5017980;28;20108;-69
2023/01/02 09:48:16;;;;;;;4.57;1.10;;;8.60;99.90;;;;;;5022739;28;20403;-70
2023/01/02 09:50:45;;;;;;;1.93;1.20;;;8.60;99.90;;;;;;5016997;28;20048;-68
2023/01/02 09:53:12;;;;;;;3.55;1.30;;;8.60;99.90;;;;;;5000012;28;20392;-68
2023/01/02 09:56:03;;;;;;;2.83;0.98;;;8.70;99.90;;;;;;4986903;28;20045;-68
2023/01/02 09:58:31;;;;;;;1.15;0.60;;;8.70;99.90;;;;;;5005668;28;20061;-68
2023/01/02 10:00:58;;;;;;;3.25;1.20;;;8.70;99.90;;;;;;5011539;28;20045;-68
2023/01/02 10:03:47;;;;;;;1.90;0.70;;;8.70;99.90;;;;;;5017104;28;20084;-69
2023/01/02 10:06:30;;;;;;;2.80;0.82;;;8.70;99.90;;;;;;5006337;28;20052;-68
2023/01/02 10:09:21;;;;;;;1.83;0.70;;;8.70;99.90;;;;;;4988274;28;20042;-68
2023/01/02 10:11:59;;;;;;;2.10;1.17;;;8.70;99.90;;;;;;5018926;28;20056;-68
2023/01/02 10:14:33;;;;;;;1.25;0.65;;;8.70;99.90;;;;;;4992884;28;20054;-69
2023/01/02 10:17:01;;;;;;;2.67;0.90;;;8.70;99.90;;;;;;5020632;28;20052;-68
2023/01/02 10:19:34;;;;;;;3.15;1.35;;;8.70;99.90;;;;;;5017331;28;20050;-68
2023/01/02 10:22:00;;;;;;;2.75;0.80;;;8.70;99.90;;;;;;5012274;28;20099;-68
2023/01/02 10:24:44;;;;;;;2.00;1.02;;;8.70;99.90;;;;;;5011463;28;20053;-68
2023/01/02 10:27:22;;;;;;;1.95;0.90;;;8.70;99.90;;;;;;5015719;28;20042;-69
2023/01/02 10:29:59;;;;;;;4.35;0.90;;;8.70;99.90;;;;;;5003900;28;20048;-68
2023/01/02 10:32:26;;;;;;;2.50;0.73;;;8.70;99.90;;;;;;5014963;28;20492;-68
2023/01/02 10:34:58;;;;;;;4.80;1.38;;;8.70;99.90;;;;;;5024982;28;20049;-68
2023/01/02 10:37:26;;;;;;;2.20;1.05;;;8.70;99.90;;;;;;5023414;28;20065;-69
2023/01/02 10:39:52;;;;;;;4.18;1.45;;;8.70;99.90;;;;;;4981050;28;20467;-68
2023/01/02 10:42:18;;;;;;;4.10;1.00;;;8.70;99.90;;;;;;5006225;28;20046;-68
2023/01/02 10:44:46;;;;;;;2.67;0.85;;;8.70;99.90;;;;;;5013489;28;20057;-68
2023/01/02 10:47:21;;;;;;;3.50;1.10;;;8.70;99.90;;;;;;5016254;28;20049;-68
2023/01/02 10:49:49;;;;;;;2.92;1.17;;;8.70;99.90;;;;;;5016957;28;20040;-68
2023/01/02 10:52:23;;;;;;;2.45;1.02;;;8.60;99.90;;;;;;5020279;28;20090;-71
2023/01/02 10:54:57;;;;;;;4.13;1.27;;;8.60;99.90;;;;;;5007038;28;20050;-69
2023/01/02 10:57:45;;;;;;;4.95;1.23;;;8.60;99.90;;;;;;5007833;28;20077;-71
2023/01/02 11:00:17;;;;;;;4.05;1.10;;;8.60;99.90;;;;;;5011864;28;20093;-69
2023/01/02 11:02:50;;;;;;;6.03;1.40;;;8.60;99.90;;;;;;4983236;28;20452;-69
2023/01/02 11:05:22;;;;;;;4.13;1.20;;;8.50;99.90;;;;;;4985934;28;20082;-69
2023/01/02 11:07:51;;;;;;;4.88;0.80;;;8.60;99.90;;;;;;5006911;28;20041;-69
2023/01/02 11:10:22;;;;;;;6.55;1.00;;;8.50;99.90;;;;;;4999946;28;20037;-69
2023/01/02 11:12:48;;;;;;;2.03;1.00;;;8.50;99.90;;;;;;5011479;28;20676;-69
2023/01/02 11:15:24;;;;;;;2.08;0.82;;;8.60;99.90;;;;;;5004578;28;20046;-68
2023/01/02 11:17:50;;;;;;;2.33;0.85;;;8.60;99.90;;;;;;4999776;28;20054;-69
2023/01/02 11:20:27;;;;;;;6.10;0.90;;;8.50;99.90;;;;;;4997022;28;20052;-69
2023/01/02 11:22:54;;;;;;;;;;;8.60;99.90;;;;;;5008168;28;20060;-69
2023/01/02 11:25:26;;;;;;;3.00;1.30;;;8.60;99.90;;;;;;5015220;28;19959;-69
2023/01/02 11:27:57;;;;;;;4.25;0.98;;;8.70;99.90;;;;;;5000929;28;20095;-69
2023/01/02 11:30:31;;;;;;;2.30;0.60;;;8.70;99.90;;;;;;4989535;28;20049;-69
2023/01/02 11:33:18;;;;;;;7.20;0.82;;;8.80;99.90;;;;;;4998970;28;20120;-69
2023/01/02 11:40:59;;;;;;;4.45;0.68;;;8.90;99.90;;;;;;5011453;28;20045;-70
2023/01/02 11:43:48;;;;;;;7.20;2.33;;;8.90;99.90;;;;;;5013439;28;20064;-69
2023/01/02 11:46:36;;;;;;;3.33;1.20;;;8.90;99.90;;;;;;4996733;28;20396;-69
2023/01/02 11:49:04;;;;;;;6.97;1.15;;;9.00;99.90;;;;;;5015932;28;20111;-69
2023/01/02 11:51:34;;;;;;;5.53;1.15;;;9.00;99.90;;;;;;5001934;28;20052;-69
2023/01/02 11:54:02;;;;;;;2.28;0.73;;;8.90;99.90;;;;;;4995035;28;20064;-69
2023/01/02 11:56:33;;;;;;;7.50;1.25;;;8.90;99.90;;;;;;4996148;28;20045;-69
2023/01/02 11:59:05;;;;;;;3.13;0.90;;;8.90;99.90;;;;;;5018190;28;20095;-69
2023/01/02 12:01:48;;;;;;;3.42;0.70;;;8.90;99.90;;;;;;5016681;28;20133;-69
2023/01/02 12:04:14;;;;;;;3.85;0.70;;;9.00;99.90;;;;;;5013029;28;20507;-68
2023/01/02 12:07:05;;;;;;;11.70;1.77;;;8.90;99.90;;;;;;4999091;28;20069;-69
2023/01/02 12:09:31;;;;;;;4.35;0.70;;;9.00;99.90;;;;;;4994251;28;20538;-68
2023/01/02 12:12:07;;;;;;;7.03;0.83;;;9.00;99.90;;;;;;5000510;28;20136;-68
2023/01/02 12:15:01;;;;;;;8.18;1.02;;;9.00;99.90;;;;;;5001317;28;20049;-68
2023/01/02 12:17:50;;;;;;;2.35;0.80;;;9.00;99.90;;;;;;5012472;28;20100;-69
2023/01/02 12:20:42;;;;;;;3.92;0.95;;;9.10;99.90;;;;;;4993767;28;20064;-70
2023/01/02 12:23:35;;;;;;;6.72;0.65;;;9.10;99.90;;;;;;4998991;28;20044;-68
2023/01/02 12:26:35;;;;;;;4.97;0.93;;;9.10;99.90;;;;;;5025501;28;20091;-70
2023/01/02 12:29:07;;;;;;;4.93;0.88;;;9.10;99.90;;;;;;4953631;28;20061;-70
2023/01/02 12:31:42;;;;;;;3.83;0.73;;;9.10;99.90;;;;;;5024369;28;20123;-69
2023/01/02 12:34:13;;;;;;;4.97;1.02;;;9.10;99.90;;;;;;5007028;28;20427;-70
2023/01/02 12:37:05;;;;;;;6.03;1.02;;;9.10;99.90;;;;;;5005135;28;20569;-71
2023/01/02 12:39:58;;;;;;;7.35;1.20;;;9.20;99.90;;;;;;5012643;28;20120;-69
2023/01/02 12:42:48;;;;;;;4.55;1.02;;;9.20;99.90;;;;;;5025799;28;20106;-68
2023/01/02 12:45:26;;;;;;;3.17;1.02;;;9.20;99.90;;;;;;5007810;28;20406;-69
2023/01/02 12:48:05;;;;;;;4.72;0.70;;;9.20;99.90;;;;;;5010151;28;20044;-68
2023/01/02 12:50:57;;;;;;;6.13;1.50;;;9.20;99.90;;;;;;5007029;28;20216;-71
2023/01/02 12:53:31;;;;;;;6.70;1.10;;;9.20;99.90;;;;;;5024447;28;20518;-71
2023/01/02 12:56:18;;;;;;;3.03;1.15;;;9.20;99.90;;;;;;5006566;28;20056;-70
2023/01/02 12:59:11;;;;;;;6.03;2.75;;;9.20;99.90;;;;;;5026637;28;20076;-70
2023/01/02 13:02:11;;;;;;;4.45;1.40;;;9.20;99.90;;;;;;5006715;28;20356;-70
2023/01/02 13:04:39;;;;;;;5.85;0.98;;;9.20;99.90;;;;;;5009817;28;20057;-68
2023/01/02 13:07:26;;;;;;;5.13;1.88;;;9.20;99.90;;;;;;5027042;28;20041;-69
2023/01/02 13:09:54;;;;;;;5.68;1.75;;;9.20;99.90;;;;;;5023685;28;20068;-68
2023/01/02 13:12:24;;;;;;;8.20;1.30;;;9.10;99.90;;;;;;5011353;28;20521;-69
2023/01/02 13:14:54;;;;;;;11.30;1.50;;;9.20;99.90;;;;;;5025017;28;20037;-69
2023/01/02 13:17:48;;;;;;;3.75;0.95;;;9.20;99.90;;;;;;5023729;28;20547;-70
2023/01/02 13:20:29;;;;;;;8.80;1.38;;;9.20;99.90;;;;;;5020773;28;20211;-69